X  Κλείσε Στοιχεία αεροπορικών μετεωρολογικών δεδομένων METAR     LGTS Thessaloniki Macedonia International Airport
θερμοκρασία
12°C θερμοκρασία
11°C Σημείο δρόσου
94% Υγρασία



Ανεμος
8 KM/H
5 MPH
2 M/S
4 KTS



100°
Ανατολή
Τρέχουσες συνθήκες

Σαφή Σαφή
πίεση 1008.92 (hPa) - 29.79 (inHg)
Ορατότητα 6.2 (μίλι) - 10 (km)
Aεροδρόμιο
Κωδικός αεροδρομίου LGTS

Τοποθεσία: Thessaloniki Macedonia International Airport
Απόσταση: 85 (km)

Metar:
LGTS 160420Z 10004KT CAVOK 12/11 Q1009 NOSIG

ώρα: 16-05-2021 07:20 EEST